createdAt,value
2022-10-13T00:00:47.407Z,98676.00
2022-10-13T00:03:14.529Z,98686.56
2022-10-13T00:05:46.382Z,98682.75
2022-10-13T00:08:15.390Z,98679.84
2022-10-13T00:10:46.147Z,98677.31
2022-10-13T00:13:13.370Z,98682.22
2022-10-13T00:15:41.550Z,98674.94
2022-10-13T00:18:08.438Z,98686.59
2022-10-13T00:20:35.889Z,98678.81
2022-10-13T00:23:02.577Z,98680.75
2022-10-13T00:25:29.111Z,98675.66
2022-10-13T00:27:55.816Z,98682.63
2022-10-13T00:30:28.074Z,98672.88
2022-10-13T00:32:54.704Z,98676.38
2022-10-13T00:35:21.380Z,98668.81
2022-10-13T00:37:47.851Z,98683.75
2022-10-13T00:40:14.525Z,98669.25
2022-10-13T00:42:41.909Z,98679.84
2022-10-13T00:45:25.792Z,98680.09
2022-10-13T00:48:00.764Z,98679.47
2022-10-13T00:50:38.019Z,98669.09
2022-10-13T00:53:05.877Z,98674.50
2022-10-13T00:55:36.797Z,98674.97
2022-10-13T00:58:06.126Z,98670.69
2022-10-13T01:00:34.569Z,98668.47
2022-10-13T01:03:04.470Z,98663.94
2022-10-13T01:05:31.525Z,98662.03
2022-10-13T01:07:59.727Z,98664.81
2022-10-13T01:11:11.204Z,98665.13
2022-10-13T01:13:58.071Z,98671.22
2022-10-13T01:16:43.599Z,98664.53
2022-10-13T01:19:16.221Z,98663.69
2022-10-13T01:22:01.934Z,98661.50
2022-10-13T01:24:33.059Z,98657.00
2022-10-13T01:27:19.300Z,98661.81
2022-10-13T01:29:54.718Z,98649.13
2022-10-13T01:32:21.553Z,98643.28
2022-10-13T01:34:56.646Z,98654.50
2022-10-13T01:37:32.960Z,98647.84
2022-10-13T01:40:17.240Z,98649.66
2022-10-13T01:42:55.294Z,98654.63
2022-10-13T01:45:26.727Z,98639.25
2022-10-13T01:47:53.706Z,98632.91
2022-10-13T01:50:20.721Z,98639.16
2022-10-13T01:52:50.252Z,98633.81
2022-10-13T01:55:16.889Z,98638.03
2022-10-13T01:57:45.053Z,98629.03
2022-10-13T02:00:13.894Z,98641.16
2022-10-13T02:02:53.922Z,98632.44
2022-10-13T02:05:34.006Z,98646.22
2022-10-13T02:08:15.248Z,98639.13
2022-10-13T02:10:51.008Z,98638.19
2022-10-13T02:13:22.140Z,98643.13
2022-10-13T02:15:53.992Z,98634.97
2022-10-13T02:18:25.896Z,98643.09
2022-10-13T02:20:53.433Z,98635.59
2022-10-13T02:23:20.365Z,98637.94
2022-10-13T02:25:48.630Z,98644.47
2022-10-13T02:28:15.833Z,98647.09
2022-10-13T02:30:43.161Z,98645.56
2022-10-13T02:33:10.267Z,98650.91
2022-10-13T02:35:37.807Z,98640.31
2022-10-13T02:38:04.531Z,98641.25
2022-10-13T02:40:31.389Z,98643.66
2022-10-13T02:42:58.143Z,98640.44
2022-10-13T02:45:25.210Z,98631.47
2022-10-13T02:47:54.901Z,98633.78
2022-10-13T02:50:21.761Z,98633.28
2022-10-13T02:52:50.569Z,98632.50
2022-10-13T02:55:17.418Z,98636.00
2022-10-13T02:57:46.357Z,98639.63
2022-10-13T03:00:13.767Z,98631.16
2022-10-13T03:02:40.451Z,98633.00
2022-10-13T03:05:07.091Z,98631.13
2022-10-13T03:07:33.759Z,98623.13
2022-10-13T03:10:00.322Z,98634.34
2022-10-13T03:12:27.059Z,98625.97
2022-10-13T03:14:53.611Z,98624.63
2022-10-13T03:17:20.327Z,98624.03
2022-10-13T03:19:46.968Z,98618.84
2022-10-13T03:22:17.275Z,98624.66
2022-10-13T03:24:44.193Z,98633.03
2022-10-13T03:27:10.991Z,98625.22
2022-10-13T03:29:37.626Z,98630.09
2022-10-13T03:32:04.364Z,98629.94
2022-10-13T03:34:30.992Z,98630.00
2022-10-13T03:36:57.900Z,98630.16
2022-10-13T03:39:24.897Z,98629.50
2022-10-13T03:41:51.440Z,98625.63
2022-10-13T03:44:18.181Z,98634.69
2022-10-13T03:46:44.782Z,98621.38
2022-10-13T03:49:12.202Z,98632.09
2022-10-13T03:51:38.980Z,98632.59
2022-10-13T03:54:05.523Z,98626.97
2022-10-13T03:56:32.244Z,98627.44
2022-10-13T03:59:00.328Z,98637.47
2022-10-13T04:01:29.555Z,98627.25
2022-10-13T04:04:00.101Z,98637.50
2022-10-13T04:06:26.902Z,98632.50
2022-10-13T04:08:53.826Z,98635.22
2022-10-13T04:11:21.913Z,98632.41
2022-10-13T04:13:51.816Z,98623.03
2022-10-13T04:16:20.620Z,98629.75
2022-10-13T04:18:58.392Z,98620.59
2022-10-13T04:21:26.096Z,98606.56
2022-10-13T04:23:57.315Z,98626.25
2022-10-13T04:26:25.855Z,98611.72
2022-10-13T04:28:55.285Z,98618.53
2022-10-13T04:31:23.562Z,98621.81
2022-10-13T04:33:51.257Z,98614.91
2022-10-13T04:36:19.098Z,98605.69
2022-10-13T04:38:49.093Z,98605.84
2022-10-13T04:41:17.401Z,98602.47
2022-10-13T04:43:47.134Z,98608.13
2022-10-13T04:46:16.440Z,98598.72
2022-10-13T04:48:43.472Z,98601.75
2022-10-13T04:51:12.883Z,98601.44
2022-10-13T04:53:40.472Z,98596.81
2022-10-13T04:56:13.994Z,98602.78
2022-10-13T04:58:41.768Z,98613.47
2022-10-13T05:01:20.496Z,98614.16
2022-10-13T05:03:53.644Z,98606.97
2022-10-13T05:06:23.180Z,98602.72
2022-10-13T05:08:52.682Z,98607.59
2022-10-13T05:11:20.599Z,98615.25
2022-10-13T05:13:48.896Z,98611.56
2022-10-13T05:16:17.312Z,98611.41
2022-10-13T05:18:44.378Z,98598.59
2022-10-13T05:21:17.021Z,98616.81
2022-10-13T05:23:45.299Z,98614.00
2022-10-13T05:26:18.536Z,98613.44
2022-10-13T05:28:45.890Z,98609.41
2022-10-13T05:31:15.690Z,98613.78
2022-10-13T05:33:43.330Z,98609.72
2022-10-13T05:36:19.114Z,98610.78
2022-10-13T05:38:49.552Z,98603.00
2022-10-13T05:41:16.337Z,98614.84
2022-10-13T05:43:42.982Z,98607.13
2022-10-13T05:46:10.233Z,98609.31
2022-10-13T05:48:38.481Z,98611.63
2022-10-13T05:51:16.250Z,98614.41
2022-10-13T05:53:54.113Z,98602.25
2022-10-13T05:56:30.335Z,98608.34
2022-10-13T05:59:02.589Z,98614.91
2022-10-13T06:01:32.931Z,98598.44
2022-10-13T06:04:04.180Z,98598.75
2022-10-13T06:06:31.727Z,98600.84
2022-10-13T06:08:59.961Z,98596.28
2022-10-13T06:11:26.656Z,98585.09
2022-10-13T06:13:53.184Z,98587.09
2022-10-13T06:16:19.923Z,98587.03
2022-10-13T06:18:46.887Z,98588.84
2022-10-13T06:21:13.689Z,98579.66
2022-10-13T06:23:43.158Z,98580.94
2022-10-13T06:26:09.839Z,98595.16
2022-10-13T06:28:37.339Z,98586.97
2022-10-13T06:31:06.546Z,98594.81
2022-10-13T06:33:34.096Z,98592.41
2022-10-13T06:36:05.724Z,98580.59
2022-10-13T06:38:33.318Z,98592.75
2022-10-13T06:41:05.107Z,98591.41
2022-10-13T06:43:39.630Z,98588.19
2022-10-13T06:46:10.745Z,98595.56
2022-10-13T06:48:37.549Z,98583.91
2022-10-13T06:51:10.151Z,98583.66
2022-10-13T06:53:36.919Z,98576.78
2022-10-13T06:56:05.632Z,98591.78
2022-10-13T06:58:32.729Z,98591.09
2022-10-13T07:00:59.915Z,98581.47
2022-10-13T07:03:26.610Z,98579.31
2022-10-13T07:05:53.167Z,98584.56
2022-10-13T07:08:20.718Z,98579.78
2022-10-13T07:10:47.395Z,98569.91
2022-10-13T07:13:14.095Z,98565.97
2022-10-13T07:15:41.126Z,98575.81
2022-10-13T07:18:08.031Z,98565.84
2022-10-13T07:20:36.116Z,98572.56
2022-10-13T07:23:02.971Z,98568.00
2022-10-13T07:25:30.057Z,98574.25
2022-10-13T07:27:58.892Z,98574.06
2022-10-13T07:30:26.298Z,98569.03
2022-10-13T07:32:53.131Z,98572.25
2022-10-13T07:35:19.942Z,98571.94
2022-10-13T07:37:46.983Z,98579.66
2022-10-13T07:40:13.497Z,98577.13
2022-10-13T07:42:40.149Z,98571.34
2022-10-13T07:45:07.042Z,98577.84
2022-10-13T07:47:33.633Z,98572.78
2022-10-13T07:50:00.368Z,98569.88
2022-10-13T07:52:26.801Z,98572.88
2022-10-13T07:54:54.054Z,98565.94
2022-10-13T07:57:20.616Z,98572.91
2022-10-13T07:59:47.072Z,98577.75
2022-10-13T08:02:15.650Z,98571.97
2022-10-13T08:04:42.280Z,98565.56
2022-10-13T08:07:09.397Z,98581.88
2022-10-13T08:09:35.926Z,98568.78
2022-10-13T08:12:02.449Z,98575.19
2022-10-13T08:14:30.209Z,98569.78
2022-10-13T08:16:57.941Z,98576.63
2022-10-13T08:19:26.598Z,98583.16
2022-10-13T08:21:58.284Z,98578.59
2022-10-13T08:24:26.068Z,98566.75
2022-10-13T08:26:52.753Z,98574.22
2022-10-13T08:29:23.847Z,98581.00
2022-10-13T08:31:53.667Z,98581.84
2022-10-13T08:34:21.749Z,98574.22
2022-10-13T08:36:48.851Z,98571.03
2022-10-13T08:39:15.483Z,98575.13
2022-10-13T08:41:44.201Z,98572.81
2022-10-13T08:47:37.947Z,98572.16
2022-10-13T08:50:15.146Z,98575.28
2022-10-13T08:52:47.030Z,98566.88
2022-10-13T08:55:31.889Z,98578.63
2022-10-13T08:57:59.605Z,98570.16
2022-10-13T09:00:28.353Z,98572.69
2022-10-13T09:03:04.598Z,98560.44
2022-10-13T09:06:27.247Z,98564.78
2022-10-13T09:09:15.424Z,98562.84
2022-10-13T09:11:49.579Z,98562.19
2022-10-13T09:14:23.595Z,98551.09
2022-10-13T09:16:52.543Z,98564.69
2022-10-13T09:19:22.492Z,98551.66
2022-10-13T09:21:54.838Z,98554.97
2022-10-13T09:24:23.819Z,98548.28
2022-10-13T09:27:03.263Z,98545.28
2022-10-13T09:29:32.414Z,98543.19
2022-10-13T09:32:28.921Z,98537.00
2022-10-13T09:35:20.521Z,98531.28
2022-10-13T09:38:02.150Z,98535.41
2022-10-13T09:40:31.564Z,98524.13
2022-10-13T09:43:01.232Z,98534.34
2022-10-13T09:45:31.120Z,98516.53
2022-10-13T09:48:03.181Z,98516.94
2022-10-13T09:50:31.986Z,98517.09
2022-10-13T09:53:14.733Z,98517.09
2022-10-13T09:55:41.386Z,98511.38
2022-10-13T09:58:28.300Z,98505.88
2022-10-13T10:00:55.392Z,98524.56
2022-10-13T10:03:33.617Z,98509.81
2022-10-13T10:06:14.666Z,98513.53
2022-10-13T10:09:12.213Z,98518.66
2022-10-13T10:11:45.354Z,98515.91
2022-10-13T10:14:23.919Z,98514.81
2022-10-13T10:17:04.502Z,98499.28
2022-10-13T10:19:56.094Z,98512.50
2022-10-13T10:22:47.544Z,98511.75
2022-10-13T10:25:29.967Z,98509.47
2022-10-13T10:28:17.439Z,98513.44
2022-10-13T10:30:51.985Z,98512.56
2022-10-13T10:33:23.169Z,98506.69
2022-10-13T10:35:49.819Z,98503.91
2022-10-13T10:38:41.094Z,98499.75
2022-10-13T10:41:22.757Z,98494.63
2022-10-13T10:43:56.102Z,98497.97
2022-10-13T10:46:26.909Z,98494.72
2022-10-13T10:48:59.631Z,98492.88
2022-10-13T10:51:32.385Z,98485.22
2022-10-13T10:54:11.383Z,98488.06
2022-10-13T10:56:42.676Z,98480.88
2022-10-13T10:59:20.993Z,98475.66
2022-10-13T11:02:15.870Z,98469.94
2022-10-13T11:04:53.848Z,98454.16
2022-10-13T11:07:24.398Z,98464.72
2022-10-13T11:09:54.152Z,98461.03
2022-10-13T11:12:21.205Z,98456.88
2022-10-13T11:14:54.313Z,98450.91
2022-10-13T11:17:32.348Z,98450.94
2022-10-13T11:20:00.891Z,98446.25
2022-10-13T11:22:28.889Z,98445.94
2022-10-13T11:24:59.838Z,98443.78
2022-10-13T11:27:28.268Z,98442.28
2022-10-13T11:29:58.472Z,98436.28
2022-10-13T11:32:30.597Z,98429.22
2022-10-13T11:35:06.327Z,98427.63
2022-10-13T11:38:07.793Z,98423.09
2022-10-13T11:40:56.613Z,98416.47
2022-10-13T11:43:32.261Z,98418.69
2022-10-13T11:46:17.273Z,98415.47
2022-10-13T11:49:05.896Z,98411.19
2022-10-13T11:51:35.788Z,98405.34
2022-10-13T11:54:08.606Z,98406.75
2022-10-13T11:56:48.234Z,98406.34
2022-10-13T11:59:26.177Z,98398.88
2022-10-13T12:02:16.979Z,98394.09
2022-10-13T12:04:59.709Z,98393.66
2022-10-13T12:07:32.293Z,98389.59
2022-10-13T12:09:59.171Z,98393.53
2022-10-13T12:12:26.156Z,98383.63
2022-10-13T12:14:55.233Z,98372.56
2022-10-13T12:17:26.684Z,98373.81
2022-10-13T12:19:58.520Z,98371.38
2022-10-13T12:22:25.776Z,98372.78
2022-10-13T12:25:06.353Z,98367.13
2022-10-13T12:27:44.255Z,98366.41
2022-10-13T12:30:31.814Z,98362.66
2022-10-13T12:33:00.762Z,98362.56
2022-10-13T12:35:32.896Z,98358.81
2022-10-13T12:38:06.667Z,98363.78
2022-10-13T12:40:35.378Z,98358.22
2022-10-13T12:43:04.183Z,98355.47
2022-10-13T12:45:34.435Z,98362.69
2022-10-13T12:48:01.063Z,98357.66
2022-10-13T12:50:28.022Z,98367.19
2022-10-13T12:53:14.574Z,98370.47
2022-10-13T12:55:53.247Z,98356.22
2022-10-13T12:58:27.040Z,98354.94
2022-10-13T13:01:05.814Z,98352.97
2022-10-13T13:03:32.947Z,98358.66
2022-10-13T13:06:22.370Z,98354.03
2022-10-13T13:09:12.612Z,98341.13
2022-10-13T13:11:39.416Z,98337.56
2022-10-13T13:14:38.372Z,98341.94
2022-10-13T13:17:11.116Z,98335.97
2022-10-13T13:19:39.079Z,98337.50
2022-10-13T13:22:08.324Z,98332.00
2022-10-13T13:24:40.307Z,98335.97
2022-10-13T13:27:21.390Z,98329.69
2022-10-13T13:29:48.607Z,98324.56
2022-10-13T13:32:20.091Z,98327.16
2022-10-13T13:34:47.191Z,98319.25
2022-10-13T13:37:26.426Z,98324.94
2022-10-13T13:39:53.136Z,98321.00
2022-10-13T13:42:19.870Z,98326.31
2022-10-13T13:44:47.961Z,98317.59
2022-10-13T13:47:24.277Z,98321.03
2022-10-13T13:49:53.536Z,98320.66
2022-10-13T13:52:21.809Z,98310.75
2022-10-13T13:54:50.739Z,98309.75
2022-10-13T13:57:18.386Z,98320.38
2022-10-13T13:59:45.922Z,98312.16
2022-10-13T14:02:16.249Z,98312.19
2022-10-13T14:04:42.992Z,98307.41
2022-10-13T14:07:09.897Z,98310.25
2022-10-13T14:09:36.976Z,98309.66
2022-10-13T14:12:03.727Z,98305.19
2022-10-13T14:14:31.813Z,98311.47
2022-10-13T14:17:00.115Z,98298.28
2022-10-13T14:19:27.147Z,98298.69
2022-10-13T14:21:53.756Z,98299.66
2022-10-13T14:24:20.425Z,98299.78
2022-10-13T14:26:47.082Z,98290.28
2022-10-13T14:29:13.960Z,98302.72
2022-10-13T14:31:40.741Z,98288.03
2022-10-13T14:34:07.392Z,98289.31
2022-10-13T14:36:34.206Z,98298.94
2022-10-13T14:39:01.000Z,98292.91
2022-10-13T14:41:27.705Z,98283.53
2022-10-13T14:43:54.834Z,98289.44
2022-10-13T14:46:22.215Z,98289.81
2022-10-13T14:48:49.459Z,98287.13
2022-10-13T14:51:16.095Z,98278.13
2022-10-13T14:53:44.743Z,98267.09
2022-10-13T14:56:19.409Z,98282.22
2022-10-13T14:58:53.497Z,98276.75
2022-10-13T15:01:20.705Z,98269.75
2022-10-13T15:03:47.402Z,98274.66
2022-10-13T15:06:16.384Z,98270.34
2022-10-13T15:08:44.151Z,98283.44
2022-10-13T15:11:11.588Z,98267.22
2022-10-13T15:13:39.237Z,98266.75
2022-10-13T15:16:06.904Z,98276.03
2022-10-13T15:18:36.118Z,98273.22
2022-10-13T15:21:02.890Z,98274.31
2022-10-13T15:23:29.532Z,98273.69
2022-10-13T15:25:58.640Z,98275.41
2022-10-13T15:28:27.486Z,98267.19
2022-10-13T15:30:55.000Z,98265.59
2022-10-13T15:33:22.329Z,98264.75
2022-10-13T15:35:52.923Z,98264.75
2022-10-13T15:38:21.198Z,98265.97
2022-10-13T15:40:48.491Z,98261.09
2022-10-13T15:43:15.978Z,98255.97
2022-10-13T15:45:42.923Z,98262.91
2022-10-13T15:48:11.042Z,98255.88
2022-10-13T15:50:41.926Z,98253.09
2022-10-13T15:53:09.876Z,98251.03
2022-10-13T15:55:36.540Z,98255.47
2022-10-13T15:58:03.546Z,98244.59
2022-10-13T16:00:30.190Z,98243.97
2022-10-13T16:02:58.088Z,98248.53
2022-10-13T16:05:24.665Z,98241.31
2022-10-13T16:07:51.350Z,98246.50
2022-10-13T16:10:18.126Z,98253.53
2022-10-13T16:12:49.476Z,98241.94
2022-10-13T16:15:17.993Z,98247.97
2022-10-13T16:17:46.429Z,98251.41
2022-10-13T16:20:13.315Z,98255.13
2022-10-13T16:22:39.940Z,98262.31
2022-10-13T16:25:09.219Z,98256.94
2022-10-13T16:27:38.372Z,98256.59
2022-10-13T16:30:07.985Z,98254.03
2022-10-13T16:32:41.196Z,98259.72
2022-10-13T16:35:08.059Z,98256.69
2022-10-13T16:37:34.713Z,98246.75
2022-10-13T16:40:01.633Z,98246.88
2022-10-13T16:42:28.335Z,98256.09
2022-10-13T16:44:54.943Z,98244.47
2022-10-13T16:47:21.788Z,98253.13
2022-10-13T16:49:48.649Z,98259.75
2022-10-13T16:52:16.206Z,98247.53
2022-10-13T16:54:43.819Z,98254.94
2022-10-13T16:57:10.462Z,98254.66
2022-10-13T16:59:37.241Z,98259.63
2022-10-13T17:02:04.083Z,98257.84
2022-10-13T17:04:31.363Z,98260.31
2022-10-13T17:06:58.303Z,98262.31
2022-10-13T17:09:24.990Z,98257.63
2022-10-13T17:11:51.650Z,98270.84
2022-10-13T17:14:18.292Z,98263.13
2022-10-13T17:16:45.231Z,98258.47
2022-10-13T17:19:11.888Z,98259.91
2022-10-13T17:21:38.650Z,98262.63
2022-10-13T17:24:08.285Z,98266.72
2022-10-13T17:26:34.964Z,98250.19
2022-10-13T17:29:02.151Z,98251.19
2022-10-13T17:31:28.808Z,98243.81
2022-10-13T17:33:55.448Z,98259.66
2022-10-13T17:36:28.065Z,98255.28
2022-10-13T17:38:57.193Z,98259.31
2022-10-13T17:45:50.057Z,98244.56
2022-10-13T17:48:22.149Z,98261.16
2022-10-13T17:50:49.662Z,98258.22
2022-10-13T17:53:16.286Z,98264.41
2022-10-13T17:55:43.385Z,98264.25
2022-10-13T17:58:11.141Z,98271.81
2022-10-13T18:01:00.703Z,98267.25
2022-10-13T18:03:24.500Z,98268.03
2022-10-13T18:05:52.442Z,98263.03
2022-10-13T18:08:19.956Z,98264.91
2022-10-13T18:11:07.104Z,98269.72
2022-10-13T18:13:34.280Z,98275.50
2022-10-13T18:16:09.095Z,98269.81
2022-10-13T18:18:36.380Z,98268.88
2022-10-13T18:21:05.247Z,98274.34
2022-10-13T18:23:33.528Z,98274.56
2022-10-13T18:26:20.023Z,98276.34
2022-10-13T18:28:48.237Z,98279.88
2022-10-13T18:31:29.853Z,98277.75
2022-10-13T18:34:02.260Z,98272.75
2022-10-13T18:36:50.302Z,98270.06
2022-10-13T18:39:25.092Z,98275.44
2022-10-13T18:41:52.910Z,98270.78
2022-10-13T18:44:20.543Z,98267.78
2022-10-13T18:46:52.086Z,98268.78
2022-10-13T18:49:21.440Z,98268.31
2022-10-13T18:51:50.532Z,98269.22
2022-10-13T18:54:17.191Z,98268.09
2022-10-13T18:56:43.938Z,98269.63
2022-10-13T18:59:11.297Z,98262.88
2022-10-13T19:01:39.083Z,98264.72
2022-10-13T19:04:05.930Z,98261.91
2022-10-13T19:06:33.417Z,98261.31
2022-10-13T19:09:02.303Z,98258.31
2022-10-13T19:11:29.898Z,98268.66
2022-10-13T19:13:58.245Z,98264.25
2022-10-13T19:16:26.674Z,98254.78
2022-10-13T19:19:05.398Z,98254.72
2022-10-13T19:21:32.699Z,98250.91
2022-10-13T19:24:00.504Z,98251.06
2022-10-13T19:26:31.507Z,98248.91
2022-10-13T19:29:18.444Z,98250.22
2022-10-13T19:31:45.971Z,98243.56
2022-10-13T19:34:13.392Z,98246.31
2022-10-13T19:36:45.581Z,98247.88
2022-10-13T19:39:21.496Z,98256.84
2022-10-13T19:41:49.984Z,98247.25
2022-10-13T19:44:18.368Z,98258.84
2022-10-13T19:46:47.160Z,98248.03
2022-10-13T19:49:15.943Z,98256.41
2022-10-13T19:51:45.167Z,98259.09
2022-10-13T19:54:11.986Z,98249.22
2022-10-13T19:56:44.608Z,98254.41
2022-10-13T19:59:11.288Z,98247.16
2022-10-13T20:01:40.953Z,98245.41
2022-10-13T20:04:13.256Z,98248.88
2022-10-13T20:06:43.182Z,98255.06
2022-10-13T20:09:10.148Z,98260.59
2022-10-13T20:11:36.859Z,98250.19
2022-10-13T20:14:07.237Z,98251.28
2022-10-13T20:16:34.817Z,98248.59
2022-10-13T20:19:01.631Z,98250.53
2022-10-13T20:21:29.248Z,98248.88
2022-10-13T20:23:56.881Z,98245.16
2022-10-13T20:26:24.406Z,98242.50
2022-10-13T20:28:53.195Z,98247.47
2022-10-13T20:31:21.623Z,98251.53
2022-10-13T20:33:49.708Z,98246.06
2022-10-13T20:36:18.750Z,98247.00
2022-10-13T20:38:47.680Z,98244.38
2022-10-13T20:41:26.682Z,98239.97
2022-10-13T20:43:55.527Z,98232.50
2022-10-13T20:46:23.779Z,98238.00
2022-10-13T20:49:09.897Z,98236.84
2022-10-13T20:51:38.324Z,98242.69
2022-10-13T20:54:05.000Z,98236.16
2022-10-13T20:56:31.702Z,98238.44
2022-10-13T20:59:03.611Z,98226.97
2022-10-13T21:01:30.815Z,98232.84
2022-10-13T21:03:57.539Z,98237.09
2022-10-13T21:06:26.180Z,98226.53
2022-10-13T21:08:53.386Z,98233.91
2022-10-13T21:11:22.528Z,98227.50
2022-10-13T21:13:50.253Z,98239.38
2022-10-13T21:16:19.802Z,98242.50
2022-10-13T21:18:51.443Z,98238.47
2022-10-13T21:21:20.546Z,98227.78
2022-10-13T21:23:52.238Z,98238.31
2022-10-13T21:26:21.984Z,98239.47
2022-10-13T21:28:50.109Z,98233.44
2022-10-13T21:31:18.758Z,98238.22
2022-10-13T21:33:45.767Z,98232.88
2022-10-13T21:36:23.862Z,98232.75
2022-10-13T21:38:53.447Z,98230.22
2022-10-13T21:41:21.163Z,98235.41
2022-10-13T21:43:47.914Z,98221.50
2022-10-13T21:46:16.647Z,98220.69
2022-10-13T21:48:44.457Z,98228.13
2022-10-13T21:51:22.815Z,98230.78
2022-10-13T21:53:54.825Z,98227.69
2022-10-13T21:56:22.435Z,98229.75
2022-10-13T21:58:49.260Z,98225.69
2022-10-13T22:01:17.651Z,98219.09
2022-10-13T22:03:44.465Z,98230.50
2022-10-13T22:06:18.443Z,98224.31
2022-10-13T22:08:48.278Z,98224.56
2022-10-13T22:11:22.135Z,98231.16
2022-10-13T22:13:48.778Z,98227.94
2022-10-13T22:16:18.975Z,98216.28
2022-10-13T22:18:46.582Z,98221.34
2022-10-13T22:21:17.157Z,98210.13
2022-10-13T22:23:45.116Z,98213.91
2022-10-13T22:26:12.780Z,98200.44
2022-10-13T22:28:40.653Z,98214.91
2022-10-13T22:31:10.173Z,98209.72
2022-10-13T22:33:38.139Z,98210.41
2022-10-13T22:36:16.530Z,98206.06
2022-10-13T22:38:44.971Z,98208.72
2022-10-13T22:41:13.216Z,98201.66
2022-10-13T22:43:40.315Z,98205.53
2022-10-13T22:46:19.999Z,98209.84
2022-10-13T22:48:47.452Z,98201.41
2022-10-13T22:51:17.407Z,98208.88
2022-10-13T22:53:44.752Z,98202.91
2022-10-13T22:56:17.751Z,98202.66
2022-10-13T22:58:48.446Z,98203.34
2022-10-13T23:01:15.460Z,98205.31
2022-10-13T23:03:42.813Z,98198.78
2022-10-13T23:06:14.525Z,98203.44
2022-10-13T23:08:41.611Z,98208.81
2022-10-13T23:11:09.291Z,98206.22
2022-10-13T23:13:35.982Z,98204.13
2022-10-13T23:16:08.784Z,98199.41
2022-10-13T23:18:37.780Z,98202.50
2022-10-13T23:21:08.905Z,98194.34
2022-10-13T23:23:37.107Z,98192.16
2022-10-13T23:26:08.008Z,98186.75
2022-10-13T23:28:35.536Z,98185.44
2022-10-13T23:31:03.485Z,98178.88
2022-10-13T23:33:30.593Z,98187.75
2022-10-13T23:35:59.298Z,98192.34
2022-10-13T23:38:27.207Z,98196.97
2022-10-13T23:40:54.061Z,98192.34
2022-10-13T23:43:21.327Z,98194.94
2022-10-13T23:45:48.137Z,98198.44
2022-10-13T23:48:15.643Z,98205.31
2022-10-13T23:50:42.471Z,98202.47
2022-10-13T23:53:09.169Z,98211.41
2022-10-13T23:55:38.996Z,98209.47
2022-10-13T23:58:06.178Z,98208.47
